Home > Products > Valid Products > TAF

000
FTUS44 KEWX 260811 AAA
TAFSAT
TAF AMD
KSAT 260811Z 2608/2712 17005KT P6SM OVC006
     FM260900 19005KT 3SM BR OVC006
     FM261500 17010KT P6SM OVC015
     FM261700 15010KT P6SM BKN040
     FM270500 14010KT P6SM BKN010 PROB30 2708/2712 4SM TSRA
      OVC010CB=



000
FTUS44 KEWX 260741 AAA
TAFAUS
TAF AMD
KAUS 260741Z 2608/2712 20005KT 6SM BR OVC005
     FM260900 20005KT 3SM BR OVC005
     FM261500 18005KT P6SM OVC020
     FM261700 16012KT P6SM OVC040
     FM270500 16005KT P6SM OVC010 PROB30 2708/2712 4SM TSRA
      OVC010CB=



000
FTUS44 KEWX 260539
TAFDRT
TAF
KDRT 260539Z 2606/2706 11005KT P6SM SKC
     FM261100 10005KT P6SM OVC025
     FM261500 20015KT P6SM SCT050
     FM270300 34010KT P6SM OVC050=



000
FTUS44 KEWX 260539
TAFAUS
TAF
KAUS 260539Z 2606/2712 20005KT P6SM SKC
     FM260900 20005KT 3SM BR OVC010
     FM261500 18005KT P6SM OVC020
     FM261700 16012KT P6SM OVC040
     FM270500 16005KT P6SM OVC010 PROB30 2708/2712 4SM TSRA
      OVC010CB=



000
FTUS44 KEWX 260539
TAFSAT
TAF
KSAT 260539Z 2606/2712 17005KT P6SM OVC009
     FM260900 19005KT 3SM BR OVC009
     FM261500 17010KT P6SM OVC015
     FM261700 15010KT P6SM BKN040
     FM270500 14010KT P6SM BKN010 PROB30 2708/2712 4SM TSRA
      OVC010CB=



000
FTUS44 KEWX 260539
TAFAUS
TAF
KAUS 260539Z 2606/2712 20005KT P6SM SKC
     FM260900 20005KT 3SM BR OVC010
     FM261500 18005KT P6SM OVC020
     FM261700 16012KT P6SM OVC040
     FM270500 16005KT P6SM OVC010 PROB30 2708/2712 4SM TSRA
      OVC010CB=



000
FTUS44 KEWX 260539
TAFSAT
TAF
KSAT 260539Z 2606/2712 17005KT P6SM OVC009
     FM260900 19005KT 3SM BR OVC009
     FM261500 17010KT P6SM OVC015
     FM261700 15010KT P6SM BKN040
     FM270500 14010KT P6SM BKN010 PROB30 2708/2712 4SM TSRA
      OVC010CB=



000
FTUS44 KEWX 260539
TAFDRT
TAF
KDRT 260539Z 2606/2706 11005KT P6SM SKC
     FM261100 10005KT P6SM OVC025
     FM261500 20015KT P6SM SCT050
     FM270300 34010KT P6SM OVC050=



000
FTUS44 KEWX 252320
TAFDRT
TAF
KDRT 252320Z 2600/2624 14006KT P6SM SKC
     FM261100 10005KT 5SM BR OVC025
     FM261500 20010G20KT P6SM SCT050=



000
FTUS44 KEWX 252320
TAFSAT
TAF
KSAT 252320Z 2600/2706 17006KT P6SM SKC
     FM260800 18005KT P6SM OVC015
     FM260900 19004KT 3SM BR OVC009
     FM261500 17008KT P6SM OVC015
     FM261800 15010KT P6SM BKN040=



000
FTUS44 KEWX 252320
TAFAUS
TAF
KAUS 252320Z 2600/2706 23008KT P6SM SKC
     FM260900 20004KT 3SM BR OVC010
     FM261500 18005KT P6SM OVC020
     FM262100 16010KT P6SM OVC040=



000
FTUS44 KEWX 252320
TAFAUS
TAF
KAUS 252320Z 2600/2706 23008KT P6SM SKC
     FM260900 20004KT 3SM BR OVC010
     FM261500 18005KT P6SM OVC020
     FM262100 16010KT P6SM OVC040=



000
FTUS44 KEWX 252320
TAFDRT
TAF
KDRT 252320Z 2600/2624 14006KT P6SM SKC
     FM261100 10005KT 5SM BR OVC025
     FM261500 20010G20KT P6SM SCT050=



000
FTUS44 KEWX 252320
TAFSAT
TAF
KSAT 252320Z 2600/2706 17006KT P6SM SKC
     FM260800 18005KT P6SM OVC015
     FM260900 19004KT 3SM BR OVC009
     FM261500 17008KT P6SM OVC015
     FM261800 15010KT P6SM BKN040=



000
FTUS44 KEWX 251732
TAFSAT
TAF
KSAT 251732Z 2518/2624 31005KT P6SM FEW250
     FM252100 20006KT P6SM FEW250
     FM260700 19005KT P6SM OVC015
     FM260900 19004KT 3SM BR OVC009
     FM261500 17008KT P6SM OVC015
     FM261900 15010KT P6SM BKN035=



000
FTUS44 KEWX 251732
TAFDRT
TAF
KDRT 251732Z 2518/2618 31005KT P6SM SKC
     FM252300 19010KT P6SM SKC
     FM261000 11007KT 5SM BR OVC025
     FM261500 22008KT P6SM SCT050=



000
FTUS44 KEWX 251732
TAFAUS
TAF
KAUS 251732Z 2518/2624 32005KT P6SM FEW250
     FM252200 22005KT P6SM FEW250
     FM261000 20004KT 3SM BR OVC010
     FM261500 18005KT P6SM OVC025
     FM262000 16010KT P6SM OVC035=



000
FTUS44 KEWX 251430 AAB
TAFDRT
TAF AMD
KDRT 251430Z 2515/2612 31005KT P6SM SCT015
     FM252100 20010KT P6SM SKC
     FM261100 11007KT 5SM BR OVC025=



000
FTUS44 KEWX 251327 AAA
TAFSAT
TAF AMD
KSAT 251327Z 2513/2618 VRB03KT P6SM FEW050 BKN110
     FM251400 29005KT P6SM SCT250
     FM252100 21005KT P6SM FEW250
     FM260800 17005KT 3SM BR OVC015
     FM261600 17005KT P6SM OVC030=



000
FTUS44 KEWX 251327 AAA
TAFDRT
TAF AMD
KDRT 251327Z 2513/2612 31005KT 3SM BR BKN150
      TEMPO 2513/2515 1SM BR BKN002
     FM251600 31005KT P6SM SCT015
     FM252100 20010KT P6SM SKC=



000
FTUS44 KEWX 251136
TAFSAT
TAF
KSAT 251136Z 2512/2618 VRB03KT P6SM FEW050 OVC110
      TEMPO 2512/2514 VRB15G30KT 2SM TSRA BR FEW030CB
     FM251400 29005KT P6SM SCT250
     FM252100 21005KT P6SM FEW250
     FM260800 17005KT 3SM BR OVC015
     FM261600 17005KT P6SM OVC030=



000
FTUS44 KEWX 251136
TAFDRT
TAF
KDRT 251136Z 2512/2612 31005KT 3SM BR BKN150
     FM251600 31005KT P6SM SCT015
     FM252100 20010KT P6SM SKC=



000
FTUS44 KEWX 251136
TAFAUS
TAF
KAUS 251136Z 2512/2618 16005KT P6SM FEW020 BKN080
     FM251400 32005KT P6SM SCT250
     FM252200 22005KT P6SM SCT250
     FM260900 19005KT 3SM BR OVC025
     FM261500 18005KT P6SM OVC040=



000
FTUS44 KEWX 250954 AAC
TAFSAT
TAF AMD
KSAT 250954Z 2510/2612 VRB03KT P6SM SCT007 OVC150
      TEMPO 2510/2512 VRB25G40KT 1/2SM +TSRA FG FEW007CB
     FM251400 29005KT P6SM SCT250
     FM252100 19005KT P6SM FEW250
     FM260800 17005KT 3SM BR OVC015=



000
FTUS44 KEWX 250912 AAB
TAFAUS
TAF AMD
KAUS 250912Z 2509/2612 20005KT P6SM OVC020
      TEMPO 2509/2512 6SM -TSRA FEW025CB
     FM251400 28005KT P6SM SCT250
     FM252200 20005KT P6SM SCT250
     FM260900 19005KT 3SM BR OVC025=



000
FTUS44 KEWX 250815 AAB
TAFDRT
TAF AMD
KDRT 250815Z 2508/2606 VRB03KT 5SM BR SCT010 BKN070
      TEMPO 2508/2509 1SM TSRA BKN010CB
     FM251300 01005KT P6SM SCT015
     FM251700 18010KT P6SM SKC=



000
FTUS44 KEWX 250808 AAB
TAFSAT
TAF AMD
KSAT 250808Z 2508/2612 VRB03KT P6SM SCT007 OVC150
      TEMPO 2508/2511 4SM TSRA BKN020CB
     FM251400 29005KT P6SM SCT250
     FM252100 19005KT P6SM FEW250
     FM260800 17005KT 3SM BR OVC015=



000
FTUS44 KEWX 250807 AAA
TAFAUS
TAF AMD
KAUS 250807Z 2508/2612 20005KT P6SM OVC020
     FM251400 28005KT P6SM SCT250
     FM252200 20005KT P6SM SCT250
     FM260900 19005KT 3SM BR OVC025=



000
FTUS44 KEWX 250709 AAA
TAFSAT
TAF AMD
KSAT 250709Z 2507/2612 VRB03KT P6SM BKN006 OVC150
     FM251400 29005KT P6SM SCT250
     FM252100 19005KT P6SM FEW250
     FM260800 17005KT 3SM BR OVC015=



000
FTUS44 KEWX 250708 AAA
TAFDRT
TAF AMD
KDRT 250708Z 2507/2606 26010KT 2SM BR SCT010 BKN070
      TEMPO 2507/2509 1SM TSRA BKN010CB
     FM251300 01005KT P6SM SCT015
     FM251700 18010KT P6SM SKC=



000
FTUS44 KEWX 250535
TAFAUS
TAF
KAUS 250535Z 2506/2612 17005KT P6SM FEW035 SCT110
     FM250700 18005KT P6SM OVC015
     FM251400 28005KT P6SM SCT250
     FM252200 20005KT P6SM SCT250
     FM260900 19005KT 3SM BR OVC025=



000
FTUS44 KEWX 250535
TAFSAT
TAF
KSAT 250535Z 2506/2612 16006KT 6SM BR SCT015 OVC250
     FM250700 18005KT 4SM BR BKN015
     FM250800 18005KT 4SM BR BKN007 OVC250
     FM251400 29005KT P6SM SCT250
     FM252100 19005KT P6SM FEW250
     FM260800 17005KT 3SM BR OVC015=



000
FTUS44 KEWX 250535
TAFDRT
TAF
KDRT 250535Z 2506/2606 VRB03KT 2SM BR BKN004
     FM251300 01005KT P6SM SCT015
     FM251700 18010KT P6SM SKC=



000
FTUS44 KEWX 250402 AAA
TAFAUS
TAF AMD
KAUS 250402Z 2504/2606 17010KT P6SM FEW025 BKN110
     FM250600 18005KT P6SM OVC015
     FM251400 24004KT P6SM SCT250
     FM252200 20006KT P6SM SCT250=



000
FTUS44 KEWX 250402 AAA
TAFAUS
TAF AMD
KAUS 250402Z 2504/2606 17010KT P6SM FEW025 BKN110
     FM250600 18005KT P6SM OVC015
     FM251400 24004KT P6SM SCT250
     FM252200 20006KT P6SM SCT250=



000
FTUS44 KEWX 250330 AAB
TAFSAT
TAF AMD
KSAT 250330Z 2504/2606 16006KT P6SM BKN012 OVC250
     FM250800 18005KT P6SM BKN007 OVC250
     FM251400 25003KT P6SM SCT250
     FM252100 19006KT P6SM FEW250=



000
FTUS44 KEWX 250330 AAB
TAFSAT
TAF AMD
KSAT 250330Z 2504/2606 16006KT P6SM BKN012 OVC250
     FM250800 18005KT P6SM BKN007 OVC250
     FM251400 25003KT P6SM SCT250
     FM252100 19006KT P6SM FEW250=



000
FTUS44 KEWX 250318 AAA
TAFSAT
TAF AMD
KSAT 250318Z 2503/2606 15008KT P6SM FEW100 BKN200 OVC250
     FM250700 19008KT P6SM OVC015
     FM251400 25003KT P6SM SCT100
     FM252100 19006KT P6SM SCT250=



000
FTUS44 KEWX 242331
TAFDRT
TAF
KDRT 242331Z 2500/2524 11005KT P6SM FEW025
     FM250500 35005KT P6SM BKN250
     FM251700 31008G18KT P6SM SKC=



000
FTUS44 KEWX 242331
TAFSAT
TAF
KSAT 242331Z 2500/2606 18010KT P6SM SCT024 BKN035 OVC250
      TEMPO 2501/2504 3SM TSRA BKN025CB
     FM250500 19008KT P6SM OVC015
     FM251400 25003KT P6SM SCT100
     FM252100 19006KT P6SM SCT250=



000
FTUS44 KEWX 242331
TAFAUS
TAF
KAUS 242331Z 2500/2606 19012KT P6SM FEW028 SCT035 BKN200
     FM250200 19005KT P6SM OVC050
      TEMPO 2502/2504 4SM -TSRA OVC025CB
     FM250500 20007KT P6SM OVC015
     FM251400 24004KT P6SM SCT250
     FM252200 20006KT P6SM SCT250=



000
FTUS44 KEWX 242331
TAFDRT
TAF
KDRT 242331Z 2500/2524 11005KT P6SM FEW025
     FM250500 35005KT P6SM BKN250
     FM251700 31008G18KT P6SM SKC=



000
FTUS44 KEWX 242331
TAFAUS
TAF
KAUS 242331Z 2500/2606 19012KT P6SM FEW028 SCT035 BKN200
     FM250200 19005KT P6SM OVC050
      TEMPO 2502/2504 4SM -TSRA OVC025CB
     FM250500 20007KT P6SM OVC015
     FM251400 24004KT P6SM SCT250
     FM252200 20006KT P6SM SCT250=



000
FTUS44 KEWX 242331
TAFSAT
TAF
KSAT 242331Z 2500/2606 18010KT P6SM SCT024 BKN035 OVC250
      TEMPO 2501/2504 3SM TSRA BKN025CB
     FM250500 19008KT P6SM OVC015
     FM251400 25003KT P6SM SCT100
     FM252100 19006KT P6SM SCT250=



000
FTUS44 KEWX 241741
TAFAUS
TAF
KAUS 241741Z 2418/2524 15013KT P6SM BKN016 OVC060
     FM242100 17013KT P6SM OVC050
      TEMPO 2501/2504 3SM TSRA BKN025CB
     FM250500 20007KT P6SM OVC015
     FM251400 23004KT P6SM SCT250=



000
FTUS44 KEWX 241741
TAFDRT
TAF
KDRT 241741Z 2418/2518 13007KT P6SM FEW017 BKN027
      TEMPO 2421/2423 4SM -TSRA BKN025CB
     FM250000 VRB06KT P6SM OVC250=



000
FTUS44 KEWX 241741
TAFSAT
TAF
KSAT 241741Z 2418/2524 13009KT P6SM BKN015 OVC250
     FM242100 16014KT P6SM BKN040
      TEMPO 2501/2504 3SM TSRA BKN025CB
     FM250500 19008KT P6SM OVC015
     FM251400 34008KT P6SM SCT250=



000
FTUS44 KEWX 241443 AAA
TAFAUS
TAF AMD
KAUS 241443Z 2415/2518 12007KT P6SM FEW003 BKN200
     FM241800 16010KT P6SM BKN022 OVC040
     FM242000 16012KT P6SM BKN040 PROB30 2500/2506 3SM -TSRA BR
      OVC015CB=



000
FTUS44 KEWX 241443 AAA
TAFAUS
TAF AMD
KAUS 241443Z 2415/2518 12007KT P6SM FEW003 BKN200
     FM241800 16010KT P6SM BKN022 OVC040
     FM242000 16012KT P6SM BKN040 PROB30 2500/2506 3SM -TSRA BR
      OVC015CB=



000
FTUS44 KEWX 241202 AAA
TAFDRT
TAF AMD
KDRT 241202Z 2412/2512 00000KT P6SM BKN025 BKN045
     FM241500 13007KT P6SM BKN022
     FM241800 14010KT P6SM SCT040 SCT250
     FM250200 31006KT P6SM SCT100 SCT250=



000
FTUS44 KEWX 241202 AAA
TAFDRT
TAF AMD
KDRT 241202Z 2412/2512 00000KT P6SM BKN025 BKN045
     FM241500 13007KT P6SM BKN022
     FM241800 14010KT P6SM SCT040 SCT250
     FM250200 31006KT P6SM SCT100 SCT250=



000
FTUS44 KEWX 241157 AAB
TAFSAT
TAF AMD
KSAT 241157Z 2412/2518 17003KT P6SM SCT011 BKN035 BKN080
     FM241300 17006KT P6SM BKN012 OVC030
     FM241600 16011KT P6SM BKN022 OVC040
     FM241900 16014KT P6SM BKN040 PROB30 2422/2502 3SM TSRA BKN030CB
     FM250400 19005KT P6SM BKN007
     FM251300 34008KT P6SM FEW010 SCT250=



000
FTUS44 KEWX 241157 AAB
TAFSAT
TAF AMD
KSAT 241157Z 2412/2518 17003KT P6SM SCT011 BKN035 BKN080
     FM241300 17006KT P6SM BKN012 OVC030
     FM241600 16011KT P6SM BKN022 OVC040
     FM241900 16014KT P6SM BKN040 PROB30 2422/2502 3SM TSRA BKN030CB
     FM250400 19005KT P6SM BKN007
     FM251300 34008KT P6SM FEW010 SCT250=



000
FTUS44 KEWX 241136 AAA
TAFSAT
TAF AMD
KSAT 241136Z 2412/2518 09006KT 3SM TSRA BR BKN017 BKN040CB OVC080
     FM241300 12006KT P6SM VCSH BKN014 OVC040
     FM241700 16011KT P6SM BKN022 OVC050
     FM241900 16014KT P6SM BKN040 PROB30 2422/2502 3SM TSRA BKN030CB
     FM250400 19005KT P6SM BKN007
     FM251300 34008KT P6SM FEW010 SCT250=



000
FTUS44 KEWX 241124
TAFDRT
TAF
KDRT 241124Z 2412/2512 00000KT P6SM VCSH FEW012 BKN100
     FM241500 13007KT P6SM BKN015
     FM241800 14010KT P6SM SCT040 SCT250
     FM250200 31006KT P6SM SCT100 SCT250=



000
FTUS44 KEWX 241124
TAFSAT
TAF
KSAT 241124Z 2412/2518 VRB03KT 1 1/2SM +TSRA BR BKN011CB OVC027
     FM241400 15006KT P6SM VCSH BKN012 OVC030
     FM241600 16008KT P6SM BKN012 OVC040
     FM241800 16011KT P6SM BKN022 OVC050
     FM242000 16014KT P6SM BKN040 PROB30 2422/2502 3SM TSRA BKN030CB
     FM250400 19005KT P6SM BKN007
     FM251300 34008KT P6SM FEW010 SCT250=



000
FTUS44 KEWX 241124
TAFAUS
TAF
KAUS 241124Z 2412/2518 14004KT 3SM -TSRA BR SCT008 BKN030CB OVC090
      TEMPO 2413/2416 1SM +TSRA BR BKN010 OVC035CB
     FM241600 16008KT P6SM VCSH BKN012 OVC035
     FM241800 16010KT P6SM BKN022 OVC040
     FM242000 16012KT P6SM BKN040 PROB30 2422/2502 3SM TSRA BKN030CB
     FM250300 19006KT P6SM BKN007
     FM251300 31006KT P6SM FEW010 SCT250=



000
FTUS44 KEWX 241124
TAFDRT
TAF
KDRT 241124Z 2412/2512 00000KT P6SM VCSH FEW012 BKN100
     FM241500 13007KT P6SM BKN015
     FM241800 14010KT P6SM SCT040 SCT250
     FM250200 31006KT P6SM SCT100 SCT250=



000
FTUS44 KEWX 241124
TAFAUS
TAF
KAUS 241124Z 2412/2518 14004KT 3SM -TSRA BR SCT008 BKN030CB OVC090
      TEMPO 2413/2416 1SM +TSRA BR BKN010 OVC035CB
     FM241600 16008KT P6SM VCSH BKN012 OVC035
     FM241800 16010KT P6SM BKN022 OVC040
     FM242000 16012KT P6SM BKN040 PROB30 2422/2502 3SM TSRA BKN030CB
     FM250300 19006KT P6SM BKN007
     FM251300 31006KT P6SM FEW010 SCT250=



000
FTUS44 KEWX 241124
TAFSAT
TAF
KSAT 241124Z 2412/2518 VRB03KT 1 1/2SM +TSRA BR BKN011CB OVC027
     FM241400 15006KT P6SM VCSH BKN012 OVC030
     FM241600 16008KT P6SM BKN012 OVC040
     FM241800 16011KT P6SM BKN022 OVC050
     FM242000 16014KT P6SM BKN040 PROB30 2422/2502 3SM TSRA BKN030CB
     FM250400 19005KT P6SM BKN007
     FM251300 34008KT P6SM FEW010 SCT250=



000
FTUS44 KEWX 241036 AAE
TAFSAT
TAF AMD
KSAT 241036Z 2411/2512 06005KT 1SM +TSRA BR BKN005CB OVC010
     FM241300 15008KT P6SM VCSH BKN007 OVC014
     FM241600 16012KT P6SM BKN012 OVC040
     FM241800 16012KT P6SM BKN022 OVC050
     FM242100 16015KT P6SM BKN040 PROB30 2422/2502 3SM TSRA BKN030CB
     FM250600 18005KT P6SM BKN010=



000
FTUS44 KEWX 240940 AAD
TAFSAT
TAF AMD
KSAT 240940Z 2410/2512 14005KT 3SM -TSRA BR BKN007 OVC014CB
     FM241300 15008KT P6SM VCSH BKN007 OVC014
     FM241600 16012KT P6SM BKN012 OVC040
     FM241800 16012KT P6SM BKN022 OVC050
     FM242100 16015KT P6SM BKN040 PROB30 2422/2502 3SM TSRA BKN030CB
     FM250600 18005KT P6SM BKN010=



000
FTUS44 KEWX 240939 AAD
TAFAUS
TAF AMD
KAUS 240939Z 2410/2512 18007KT P6SM VCSH FEW010 SCT016 BKN150
      TEMPO 2410/2414 2SM TSRA BR BKN010 OVC035CB
     FM241400 16012KT P6SM VCSH BKN012 OVC040
     FM241600 16012KT P6SM BKN022 OVC050
     FM241900 17012KT P6SM BKN040 PROB30 2422/2502 3SM TSRA BKN030CB
     FM250600 20005KT P6SM BKN010=



000
FTUS44 KEWX 240905 AAC
TAFSAT
TAF AMD
KSAT 240905Z 2409/2512 14008KT 4SM -RA BR VCTS BKN007 OVC021CB
     FM241600 16012KT P6SM BKN012 OVC040
     FM241800 16012KT P6SM BKN022 OVC050
     FM242100 16015KT P6SM BKN040 PROB30 2422/2502 3SM TSRA BKN030CB
     FM250600 18005KT P6SM BKN010=



000
FTUS44 KEWX 240846 AAC
TAFAUS
TAF AMD
KAUS 240846Z 2409/2512 18007KT P6SM VCSH FEW010 SCT016 BKN150
     FM241200 16012KT P6SM BKN012 OVC040
     FM241600 16012KT P6SM BKN022 OVC050
     FM241900 17012KT P6SM BKN040 PROB30 2422/2502 3SM TSRA BKN030CB
     FM250600 20005KT P6SM BKN010=



000
FTUS44 KEWX 240846 AAC
TAFAUS
TAF AMD
KAUS 240846Z 2409/2512 18007KT P6SM VCSH FEW010 SCT016 BKN150
     FM241200 16012KT P6SM BKN012 OVC040
     FM241600 16012KT P6SM BKN022 OVC050
     FM241900 17012KT P6SM BKN040 PROB30 2422/2502 3SM TSRA BKN030CB
     FM250600 20005KT P6SM BKN010=



000
FTUS44 KEWX 240844 AAC
TAFDRT
TAF AMD
KDRT 240844Z 2409/2506 25003KT P6SM VCSH SCT028 BKN035 OVC045
     FM241200 11005KT P6SM OVC007
     FM241700 13007KT P6SM BKN015
     FM242100 14010KT P6SM BKN040=



000
FTUS44 KEWX 240844 AAC
TAFDRT
TAF AMD
KDRT 240844Z 2409/2506 25003KT P6SM VCSH SCT028 BKN035 OVC045
     FM241200 11005KT P6SM OVC007
     FM241700 13007KT P6SM BKN015
     FM242100 14010KT P6SM BKN040=



000
FTUS44 KEWX 240840 AAB
TAFSAT
TAF AMD
KSAT 240840Z 2409/2512 13012KT 5SM BR VCSH BKN007 OVC026
     FM241600 16012KT P6SM BKN012 OVC040
     FM241800 16012KT P6SM BKN022 OVC050
     FM242100 16015KT P6SM BKN040 PROB30 2422/2502 3SM TSRA BKN030CB
     FM250600 18005KT P6SM BKN010=



000
FTUS44 KEWX 240803 AAB
TAFDRT
TAF AMD
KDRT 240803Z 2408/2506 33004KT P6SM BKN030 OVC035
      TEMPO 2408/2412 3SM TSRA SCT005 BKN025CB OVC035
     FM241200 11005KT P6SM OVC007
     FM241700 13007KT P6SM BKN015
     FM242100 14010KT P6SM BKN040=



000
FTUS44 KEWX 240701 AAA
TAFSAT
TAF AMD
KSAT 240701Z 2407/2512 15008KT P6SM VCSH BKN009 OVC029
     FM241600 16012KT P6SM BKN012 OVC040
     FM241800 16012KT P6SM BKN022 OVC050
     FM242100 16015KT P6SM BKN040 PROB30 2422/2502 3SM TSRA BKN030CB
     FM250600 18005KT P6SM BKN010=



000
FTUS44 KEWX 240639 AAB
TAFAUS
TAF AMD
KAUS 240639Z 2407/2512 17008KT P6SM BKN007 OVC015
     FM240800 14007KT P6SM VCSH OVC007
     FM241600 16012KT P6SM BKN012 OVC040
     FM241800 16012KT P6SM BKN022 OVC050
     FM242100 17012KT P6SM BKN040 PROB30 2422/2502 3SM TSRA BKN030CB
     FM250600 20005KT P6SM BKN010=



000
FTUS44 KEWX 240639 AAB
TAFAUS
TAF AMD
KAUS 240639Z 2407/2512 17008KT P6SM BKN007 OVC015
     FM240800 14007KT P6SM VCSH OVC007
     FM241600 16012KT P6SM BKN012 OVC040
     FM241800 16012KT P6SM BKN022 OVC050
     FM242100 17012KT P6SM BKN040 PROB30 2422/2502 3SM TSRA BKN030CB
     FM250600 20005KT P6SM BKN010=



000
FTUS44 KEWX 240630 AAA
TAFAUS
TAF AMD
KAUS 240630Z 2407/2512 18008KT P6SM SCT008 BKN015
     FM240800 14007KT P6SM VCSH OVC007
     FM241600 16012KT P6SM BKN012 OVC040
     FM241800 16012KT P6SM BKN022 OVC050
     FM242100 17012KT P6SM BKN040 PROB30 2422/2502 3SM TSRA BKN030CB
     FM250600 20005KT P6SM BKN010=



000
FTUS44 KEWX 240559 AAA
TAFDRT
TAF AMD
KDRT 240559Z 2406/2506 01009KT P6SM VCSH FEW010 BKN035 OVC080
     FM241000 11005KT P6SM OVC007
     FM241700 13007KT P6SM BKN015
     FM242100 14010KT P6SM BKN040=



000
FTUS44 KEWX 240559 AAA
TAFDRT
TAF AMD
KDRT 240559Z 2406/2506 01009KT P6SM VCSH FEW010 BKN035 OVC080
     FM241000 11005KT P6SM OVC007
     FM241700 13007KT P6SM BKN015
     FM242100 14010KT P6SM BKN040=



000
FTUS44 KEWX 240538
TAFAUS
TAF
KAUS 240538Z 2406/2512 00000KT P6SM BKN200
     FM240800 14007KT P6SM VCSH OVC007
     FM241600 16012KT P6SM BKN012 OVC040
     FM241800 16012KT P6SM BKN022 OVC050
     FM242100 17012KT P6SM BKN040 PROB30 2422/2502 3SM TSRA BKN030CB
     FM250600 20005KT P6SM BKN010=



000
FTUS44 KEWX 240538
TAFDRT
TAF
KDRT 240538Z 2406/2506 33008KT P6SM VCSH BKN012 BKN035 OVC080
      TEMPO 2406/2407 2SM +RA BR
     FM241000 11005KT P6SM OVC007
     FM241700 13007KT P6SM BKN015
     FM242100 14010KT P6SM BKN040=



000
FTUS44 KEWX 240538
TAFSAT
TAF
KSAT 240538Z 2406/2512 13008KT P6SM BKN009 BKN023 OVC210
     FM240700 12007KT P6SM VCSH BKN006 OVC020
     FM241600 16012KT P6SM BKN012 OVC040
     FM241800 16012KT P6SM BKN022 OVC050
     FM242100 16015KT P6SM BKN040 PROB30 2422/2502 3SM TSRA BKN030CB
     FM250600 18005KT P6SM BKN010=



000
FTUS44 KEWX 240505 AAB
TAFSAT
TAF AMD
KSAT 240505Z 2405/2506 13008KT P6SM BKN009 BKN023 OVC210
     FM240900 12007KT 5SM BR OVC005
     FM241700 16014KT P6SM BKN020
     FM242100 16015KT P6SM BKN040 PROB30 2421/2501 3SM TSRA BKN030CB
     FM250100 18010KT P6SM BKN040 PROB30 2501/2505 3SM TSRA
      BKN030CB=



000
FTUS44 KEWX 240505 AAB
TAFSAT
TAF AMD
KSAT 240505Z 2405/2506 13008KT P6SM BKN009 BKN023 OVC210
     FM240900 12007KT 5SM BR OVC005
     FM241700 16014KT P6SM BKN020
     FM242100 16015KT P6SM BKN040 PROB30 2421/2501 3SM TSRA BKN030CB
     FM250100 18010KT P6SM BKN040 PROB30 2501/2505 3SM TSRA
      BKN030CB=



000
FTUS44 KEWX 240450 AAA
TAFSAT
TAF AMD
KSAT 240450Z 2405/2506 13007KT P6SM SCT022 OVC210
     FM240600 09006KT P6SM OVC015
     FM240900 12007KT 5SM BR OVC005
     FM241700 16014KT P6SM BKN020
     FM242100 16015KT P6SM BKN040 PROB30 2421/2501 3SM TSRA BKN030CB
     FM250100 18010KT P6SM BKN040 PROB30 2501/2505 3SM TSRA
      BKN030CB=



000
FTUS44 KEWX 240450 AAA
TAFSAT
TAF AMD
KSAT 240450Z 2405/2506 13007KT P6SM SCT022 OVC210
     FM240600 09006KT P6SM OVC015
     FM240900 12007KT 5SM BR OVC005
     FM241700 16014KT P6SM BKN020
     FM242100 16015KT P6SM BKN040 PROB30 2421/2501 3SM TSRA BKN030CB
     FM250100 18010KT P6SM BKN040 PROB30 2501/2505 3SM TSRA
      BKN030CB=



000
FTUS44 KEWX 240313 AAA
TAFDRT
TAF AMD
KDRT 240313Z 2403/2424 09008KT P6SM VCTS SCT120CB BKN250
      TEMPO 2403/2405 VRB20G30KT 3SM TSRA BKN050CB
     FM241200 11005KT 5SM BR OVC007
     FM241700 13007KT P6SM BKN015
     FM242100 14010KT P6SM BKN040 BKN200=



000
FTUS44 KEWX 240313 AAA
TAFDRT
TAF AMD
KDRT 240313Z 2403/2424 09008KT P6SM VCTS SCT120CB BKN250
      TEMPO 2403/2405 VRB20G30KT 3SM TSRA BKN050CB
     FM241200 11005KT 5SM BR OVC007
     FM241700 13007KT P6SM BKN015
     FM242100 14010KT P6SM BKN040 BKN200=



000
FTUS44 KEWX 232340
TAFDRT
TAF
KDRT 232340Z 2400/2424 08006KT P6SM VCTS SCT120CB BKN250
     FM240600 12007KT P6SM SCT025 BKN200
      TEMPO 2407/2411 VRB20G30KT 3SM TSRA BKN050CB
     FM241200 11005KT 5SM BR OVC007
     FM241700 13007KT P6SM BKN015
     FM242100 14010KT P6SM BKN040 BKN200=



000
FTUS44 KEWX 232340
TAFAUS
TAF
KAUS 232340Z 2400/2506 17006KT P6SM FEW028 SCT035 BKN250
     FM240600 17006KT P6SM OVC015
     FM240900 14007KT P6SM OVC007
     FM241700 17014KT P6SM BKN020
     FM242100 17015KT P6SM BKN040 PROB30 2421/2501 3SM TSRA BKN030CB
     FM250100 18010KT P6SM BKN040 PROB30 2501/2505 3SM TSRA
      BKN030CB=



000
FTUS44 KEWX 232340
TAFSAT
TAF
KSAT 232340Z 2400/2506 16008KT P6SM FEW026 SCT040 OVC250
     FM240300 12005KT P6SM BKN025 OVC040
     FM240600 09006KT P6SM OVC015
     FM240900 12007KT 5SM BR OVC005
     FM241700 16014KT P6SM BKN020
     FM242100 16015KT P6SM BKN040 PROB30 2421/2501 3SM TSRA BKN030CB
     FM250100 18010KT P6SM BKN040 PROB30 2501/2505 3SM TSRA
      BKN030CB=



000
FTUS44 KEWX 232340
TAFAUS
TAF
KAUS 232340Z 2400/2506 17006KT P6SM FEW028 SCT035 BKN250
     FM240600 17006KT P6SM OVC015
     FM240900 14007KT P6SM OVC007
     FM241700 17014KT P6SM BKN020
     FM242100 17015KT P6SM BKN040 PROB30 2421/2501 3SM TSRA BKN030CB
     FM250100 18010KT P6SM BKN040 PROB30 2501/2505 3SM TSRA
      BKN030CB=



000
FTUS44 KEWX 232340
TAFDRT
TAF
KDRT 232340Z 2400/2424 08006KT P6SM VCTS SCT120CB BKN250
     FM240600 12007KT P6SM SCT025 BKN200
      TEMPO 2407/2411 VRB20G30KT 3SM TSRA BKN050CB
     FM241200 11005KT 5SM BR OVC007
     FM241700 13007KT P6SM BKN015
     FM242100 14010KT P6SM BKN040 BKN200=



000
FTUS44 KEWX 232340
TAFSAT
TAF
KSAT 232340Z 2400/2506 16008KT P6SM FEW026 SCT040 OVC250
     FM240300 12005KT P6SM BKN025 OVC040
     FM240600 09006KT P6SM OVC015
     FM240900 12007KT 5SM BR OVC005
     FM241700 16014KT P6SM BKN020
     FM242100 16015KT P6SM BKN040 PROB30 2421/2501 3SM TSRA BKN030CB
     FM250100 18010KT P6SM BKN040 PROB30 2501/2505 3SM TSRA
      BKN030CB=



000
FTUS44 KEWX 231953 AAA
TAFDRT
TAF AMD
KDRT 231953Z 2320/2418 13008KT P6SM FEW030 BKN250
     FM232300 11007KT P6SM VCTS SCT070CB BKN150
      TEMPO 2400/2403 VRB20G30KT 3SM TSRA BKN050CB
     FM240600 12007KT P6SM SCT025 BKN200
     FM240900 12005KT P6SM BKN015
     FM241200 11005KT 5SM BR OVC008
     FM241700 13007KT P6SM BKN015=



000
FTUS44 KEWX 231953 AAA
TAFDRT
TAF AMD
KDRT 231953Z 2320/2418 13008KT P6SM FEW030 BKN250
     FM232300 11007KT P6SM VCTS SCT070CB BKN150
      TEMPO 2400/2403 VRB20G30KT 3SM TSRA BKN050CB
     FM240600 12007KT P6SM SCT025 BKN200
     FM240900 12005KT P6SM BKN015
     FM241200 11005KT 5SM BR OVC008
     FM241700 13007KT P6SM BKN015=



000
FTUS44 KEWX 231739
TAFSAT
TAF
KSAT 231739Z 2318/2424 16005KT P6SM OVC010
     FM232000 14006KT P6SM BKN015 BKN030
     FM232200 13007KT P6SM SCT020 BKN035
     FM240300 12007KT P6SM BKN015
     FM240600 15006KT 4SM -TSRA BR OVC007CB
     FM241100 12005KT 3SM -RA BR OVC005
     FM241500 14006KT P6SM OVC008
     FM241800 17009KT P6SM BKN015
     FM242100 17010KT P6SM BKN035=



000
FTUS44 KEWX 231739
TAFAUS
TAF
KAUS 231739Z 2318/2424 17006KT P6SM BKN015 OVC150
     FM232100 15006KT P6SM SCT020 BKN035
     FM240500 13004KT P6SM BKN015
     FM240700 14004KT 4SM -TSRA BR OVC007CB
     FM241200 VRB04KT 2SM -RA BR OVC005
     FM241600 17007KT P6SM BKN015
     FM242000 17011KT P6SM BKN035=



000
FTUS44 KEWX 231739
TAFDRT
TAF
KDRT 231739Z 2318/2418 13008KT P6SM FEW030 BKN250
     FM240100 11007KT P6SM SCT070 BKN150
      TEMPO 2402/2406 -TSRA BKN050CB
     FM240900 12005KT P6SM BKN012
     FM241200 11005KT 5SM BR OVC008
     FM241700 13007KT P6SM BKN015=



000
FTUS44 KEWX 231438 AAA
TAFSAT
TAF AMD
KSAT 231438Z 2315/2418 15006KT 1SM BR OVC002
     FM231600 16008KT 5SM BR BKN008 OVC015
     FM231800 17008KT P6SM BKN018 BKN030
     FM232200 11007KT P6SM SCT050
     FM240500 15008KT P6SM BKN015
     FM240600 15007KT 4SM -TSRA BR OVC007CB
     FM241400 13006KT P6SM VCSH BKN008=



000
FTUS44 KEWX 231438 AAA
TAFSAT
TAF AMD
KSAT 231438Z 2315/2418 15006KT 1SM BR OVC002
     FM231600 16008KT 5SM BR BKN008 OVC015
     FM231800 17008KT P6SM BKN018 BKN030
     FM232200 11007KT P6SM SCT050
     FM240500 15008KT P6SM BKN015
     FM240600 15007KT 4SM -TSRA BR OVC007CB
     FM241400 13006KT P6SM VCSH BKN008=



000
FTUS44 KEWX 231435 AAA
TAFAUS
TAF AMD
KAUS 231435Z 2315/2418 15005KT 1SM BR OVC002
      TEMPO 2315/2316 1/2SM FG
     FM231600 18007KT 5SM BR BKN006 OVC020
     FM231800 18009KT P6SM BKN015 BKN030
     FM232100 17006KT P6SM SCT020 BKN035
     FM240500 15008KT P6SM BKN015
     FM240700 12007KT 4SM -TSRA BR OVC007CB=



000
FTUS44 KEWX 231435 AAA
TAFAUS
TAF AMD
KAUS 231435Z 2315/2418 15005KT 1SM BR OVC002
      TEMPO 2315/2316 1/2SM FG
     FM231600 18007KT 5SM BR BKN006 OVC020
     FM231800 18009KT P6SM BKN015 BKN030
     FM232100 17006KT P6SM SCT020 BKN035
     FM240500 15008KT P6SM BKN015
     FM240700 12007KT 4SM -TSRA BR OVC007CB=



000
FTUS44 KEWX 231143
TAFAUS
TAF
KAUS 231143Z 2312/2418 16003KT 2SM BR OVC002
      TEMPO 2312/2314 1/2SM FG
     FM231500 18007KT P6SM BKN006 OVC020
     FM231800 18009KT P6SM BKN015 BKN030
     FM232100 17006KT P6SM SCT020 BKN035
     FM240500 15008KT P6SM BKN015
     FM240700 12007KT 4SM -TSRA BR OVC007CB=



000
FTUS44 KEWX 231143
TAFDRT
TAF
KDRT 231143Z 2312/2412 12005KT 2SM BR OVC003
     FM231500 09006KT 4SM BR OVC007
     FM231700 13007KT P6SM FEW020
     FM231800 14010KT P6SM BKN250
     FM240100 12008KT P6SM SCT070 BKN150
      TEMPO 2402/2406 -TSRA BKN050CB=



000
FTUS44 KEWX 231143
TAFSAT
TAF
KSAT 231143Z 2312/2418 16006KT 2SM -DZ BR OVC003
      TEMPO 2312/2314 1/4SM FG VV002
     FM231500 16008KT P6SM BKN008 OVC015
     FM231800 17008KT P6SM BKN018 BKN030
     FM232200 11007KT P6SM SCT050
     FM240500 15008KT P6SM BKN015
     FM240600 15007KT 4SM -TSRA BR OVC007CB
     FM241400 13006KT P6SM VCSH BKN008=



000
FTUS44 KEWX 231143
TAFDRT
TAF
KDRT 231143Z 2312/2412 12005KT 2SM BR OVC003
     FM231500 09006KT 4SM BR OVC007
     FM231700 13007KT P6SM FEW020
     FM231800 14010KT P6SM BKN250
     FM240100 12008KT P6SM SCT070 BKN150
      TEMPO 2402/2406 -TSRA BKN050CB=



000
FTUS44 KEWX 231143
TAFAUS
TAF
KAUS 231143Z 2312/2418 16003KT 2SM BR OVC002
      TEMPO 2312/2314 1/2SM FG
     FM231500 18007KT P6SM BKN006 OVC020
     FM231800 18009KT P6SM BKN015 BKN030
     FM232100 17006KT P6SM SCT020 BKN035
     FM240500 15008KT P6SM BKN015
     FM240700 12007KT 4SM -TSRA BR OVC007CB=



000
FTUS44 KEWX 231143
TAFSAT
TAF
KSAT 231143Z 2312/2418 16006KT 2SM -DZ BR OVC003
      TEMPO 2312/2314 1/4SM FG VV002
     FM231500 16008KT P6SM BKN008 OVC015
     FM231800 17008KT P6SM BKN018 BKN030
     FM232200 11007KT P6SM SCT050
     FM240500 15008KT P6SM BKN015
     FM240600 15007KT 4SM -TSRA BR OVC007CB
     FM241400 13006KT P6SM VCSH BKN008=



000
FTUS44 KEWX 231051 AAD
TAFSAT
TAF AMD
KSAT 231051Z 2311/2412 16006KT 2SM -DZ BR OVC003
      TEMPO 2311/2314 1/4SM FG VV002
     FM231500 16008KT P6SM BKN008 OVC015
     FM231800 17008KT P6SM BKN018 BKN030
     FM232200 11007KT P6SM SCT050
     FM240500 15008KT P6SM BKN015=



000
FTUS44 KEWX 231051 AAD
TAFSAT
TAF AMD
KSAT 231051Z 2311/2412 16006KT 2SM -DZ BR OVC003
      TEMPO 2311/2314 1/4SM FG VV002
     FM231500 16008KT P6SM BKN008 OVC015
     FM231800 17008KT P6SM BKN018 BKN030
     FM232200 11007KT P6SM SCT050
     FM240500 15008KT P6SM BKN015=



000
FTUS44 KEWX 231028 AAC
TAFSAT
TAF AMD
KSAT 231028Z 2310/2412 16006KT 2SM -DZ BR OVC003
      TEMPO 2311/2314 1/2SM FG VV002
     FM231500 16008KT P6SM BKN008 OVC015
     FM231800 17008KT P6SM BKN018 BKN030
     FM232200 11007KT P6SM SCT050
     FM240500 15008KT P6SM BKN015=



000
FTUS44 KEWX 231028 AAC
TAFSAT
TAF AMD
KSAT 231028Z 2310/2412 16006KT 2SM -DZ BR OVC003
      TEMPO 2311/2314 1/2SM FG VV002
     FM231500 16008KT P6SM BKN008 OVC015
     FM231800 17008KT P6SM BKN018 BKN030
     FM232200 11007KT P6SM SCT050
     FM240500 15008KT P6SM BKN015=



000
FTUS44 KEWX 231027 AAA
TAFAUS
TAF AMD
KAUS 231027Z 2310/2412 16003KT 2SM BR OVC002
      TEMPO 2312/2314 1/2SM FG
     FM231500 18007KT P6SM BKN006 OVC020
     FM231800 18009KT P6SM BKN015 BKN030
     FM232100 17006KT P6SM SCT020 BKN035
     FM240500 15008KT P6SM BKN015=



000
FTUS44 KEWX 231027 AAA
TAFAUS
TAF AMD
KAUS 231027Z 2310/2412 16003KT 2SM BR OVC002
      TEMPO 2312/2314 1/2SM FG
     FM231500 18007KT P6SM BKN006 OVC020
     FM231800 18009KT P6SM BKN015 BKN030
     FM232100 17006KT P6SM SCT020 BKN035
     FM240500 15008KT P6SM BKN015=



000
FTUS44 KEWX 230835 AAB
TAFSAT
TAF AMD
KSAT 230835Z 2309/2412 16006KT 2SM -DZ BR OVC003
     FM231500 16008KT P6SM BKN008 OVC015
     FM231800 17008KT P6SM BKN018 BKN030
     FM232200 11007KT P6SM SCT050
     FM240500 15008KT P6SM BKN015=



    US Dept of Commerce
    National Oceanic and Atmospheric Administration
    National Weather Service
    1325 East West Highway
    Silver Spring, MD 20910
    Page Author: NWS Internet Services Team
Disclaimer
Information Quality
Credits
Glossary
Privacy Policy
Freedom of Information Act (FOIA)
About Us
Career Opportunities